createdAt,value
2019-03-26T00:00:53.688Z,8.65
2019-03-26T00:03:22.015Z,9.37
2019-03-26T00:05:50.709Z,7.50
2019-03-26T00:08:19.010Z,7.90
2019-03-26T00:10:47.324Z,8.28
2019-03-26T00:13:15.721Z,7.87
2019-03-26T00:15:44.041Z,8.43
2019-03-26T00:18:12.405Z,8.37
2019-03-26T00:20:40.736Z,8.40
2019-03-26T00:23:09.046Z,9.38
2019-03-26T00:25:37.344Z,7.65
2019-03-26T00:28:05.743Z,8.95
2019-03-26T00:30:34.133Z,6.40
2019-03-26T00:33:05.629Z,8.03
2019-03-26T00:35:34.028Z,7.70
2019-03-26T00:38:02.355Z,7.67
2019-03-26T00:40:31.120Z,7.30
2019-03-26T00:42:59.436Z,7.85
2019-03-26T00:45:27.739Z,9.70
2019-03-26T00:47:56.059Z,8.75
2019-03-26T00:50:24.360Z,8.00
2019-03-26T00:52:52.816Z,8.00
2019-03-26T00:55:22.865Z,7.87
2019-03-26T00:57:51.303Z,7.20
2019-03-26T01:00:31.589Z,8.43
2019-03-26T01:03:00.181Z,8.35
2019-03-26T01:05:30.040Z,7.73
2019-03-26T01:07:58.341Z,9.43
2019-03-26T01:10:27.799Z,7.80
2019-03-26T01:12:56.383Z,8.70
2019-03-26T01:15:24.729Z,8.40
2019-03-26T01:17:53.174Z,8.33
2019-03-26T01:20:21.518Z,8.90
2019-03-26T01:22:50.110Z,8.95
2019-03-26T01:25:18.417Z,9.07
2019-03-26T01:27:47.703Z,8.15
2019-03-26T01:30:16.077Z,7.20
2019-03-26T01:32:44.405Z,7.80
2019-03-26T01:35:12.951Z,8.40
2019-03-26T01:37:41.336Z,8.47
2019-03-26T01:40:09.812Z,8.20
2019-03-26T01:42:38.152Z,8.27
2019-03-26T01:45:07.828Z,7.93
2019-03-26T01:47:36.580Z,7.93
2019-03-26T01:50:05.936Z,8.60
2019-03-26T01:52:34.240Z,7.90
2019-03-26T01:55:02.854Z,7.55
2019-03-26T01:57:31.154Z,8.03
2019-03-26T01:59:59.839Z,8.77
2019-03-26T02:02:28.513Z,9.13
2019-03-26T02:05:00.312Z,7.90
2019-03-26T02:07:27.335Z,7.33
2019-03-26T02:09:55.640Z,7.67
2019-03-26T02:12:24.097Z,8.33
2019-03-26T02:14:53.212Z,9.40
2019-03-26T02:17:21.876Z,8.87
2019-03-26T02:19:50.199Z,8.47
2019-03-26T02:22:18.589Z,9.00
2019-03-26T02:24:46.899Z,8.37
2019-03-26T02:27:15.206Z,7.90
2019-03-26T02:29:43.535Z,8.57
2019-03-26T02:32:12.053Z,8.93
2019-03-26T02:34:40.593Z,9.17
2019-03-26T02:37:08.943Z,8.50
2019-03-26T02:39:37.279Z,8.00
2019-03-26T02:42:05.592Z,7.57
2019-03-26T02:44:33.893Z,8.77
2019-03-26T02:47:02.210Z,7.57
2019-03-26T02:49:30.518Z,8.30
2019-03-26T02:51:58.838Z,7.60
2019-03-26T02:54:27.185Z,8.87
2019-03-26T02:56:55.883Z,8.13
2019-03-26T02:59:24.184Z,7.60
2019-03-26T03:01:52.515Z,7.40
2019-03-26T03:04:21.021Z,7.53
2019-03-26T03:06:49.713Z,8.53
2019-03-26T03:09:18.056Z,6.33
2019-03-26T03:11:46.317Z,7.53
2019-03-26T03:14:14.704Z,7.33
2019-03-26T03:16:43.345Z,8.20
2019-03-26T03:19:15.627Z,6.27
2019-03-26T03:21:41.783Z,7.07
2019-03-26T03:24:10.102Z,8.10
2019-03-26T03:26:38.430Z,7.07
2019-03-26T03:29:07.205Z,7.20
2019-03-26T03:31:35.595Z,7.77
2019-03-26T03:34:04.013Z,6.12
2019-03-26T03:36:32.465Z,7.40
2019-03-26T03:39:00.803Z,7.47
2019-03-26T03:41:29.116Z,7.40
2019-03-26T03:43:57.483Z,8.63
2019-03-26T03:46:25.818Z,6.80
2019-03-26T03:48:54.563Z,6.90
2019-03-26T03:51:24.671Z,7.03
2019-03-26T03:53:53.189Z,7.72
2019-03-26T03:56:23.063Z,6.30
2019-03-26T03:58:51.849Z,7.55
2019-03-26T04:01:20.366Z,7.37
2019-03-26T04:03:48.761Z,7.90
2019-03-26T04:06:17.058Z,7.60
2019-03-26T04:08:45.389Z,7.87
2019-03-26T04:11:14.091Z,8.13
2019-03-26T04:13:42.493Z,6.53
2019-03-26T04:16:10.858Z,7.22
2019-03-26T04:18:39.159Z,8.03
2019-03-26T04:21:07.545Z,7.20
2019-03-26T04:23:35.854Z,7.70
2019-03-26T04:26:04.227Z,9.07
2019-03-26T04:28:32.604Z,6.97
2019-03-26T04:31:01.142Z,7.40
2019-03-26T04:33:29.436Z,8.30
2019-03-26T04:35:57.770Z,6.70
2019-03-26T04:38:26.058Z,6.33
2019-03-26T04:40:54.393Z,6.50
2019-03-26T04:43:22.702Z,6.73
2019-03-26T04:45:51.333Z,6.93
2019-03-26T04:48:19.651Z,8.70
2019-03-26T04:50:47.948Z,8.10
2019-03-26T04:53:16.270Z,7.65
2019-03-26T04:55:44.579Z,8.77
2019-03-26T04:58:13.052Z,8.03
2019-03-26T05:00:41.419Z,8.60
2019-03-26T05:03:09.799Z,9.97
2019-03-26T05:05:38.491Z,9.15
2019-03-26T05:08:06.792Z,9.47
2019-03-26T05:10:35.182Z,9.27
2019-03-26T05:13:03.496Z,10.70
2019-03-26T05:15:31.813Z,9.97
2019-03-26T05:18:00.107Z,9.83
2019-03-26T05:20:28.504Z,10.47
2019-03-26T05:22:56.811Z,8.20
2019-03-26T05:25:25.184Z,9.43
2019-03-26T05:27:54.508Z,10.03
2019-03-26T05:30:22.814Z,10.82
2019-03-26T05:32:51.146Z,17.43
2019-03-26T05:35:19.446Z,8.98
2019-03-26T05:37:47.761Z,9.80
2019-03-26T05:40:16.518Z,8.37
2019-03-26T05:42:44.968Z,9.37
2019-03-26T05:45:14.752Z,8.53
2019-03-26T05:47:43.126Z,9.20
2019-03-26T05:50:12.382Z,8.55
2019-03-26T05:52:40.763Z,9.55
2019-03-26T05:55:10.544Z,8.90
2019-03-26T05:57:39.044Z,9.37
2019-03-26T06:00:11.685Z,7.97
2019-03-26T06:02:40.293Z,8.90
2019-03-26T06:05:08.779Z,8.73
2019-03-26T06:07:37.074Z,9.40
2019-03-26T06:10:08.179Z,8.20
2019-03-26T06:12:36.496Z,9.10
2019-03-26T06:15:08.012Z,8.30
2019-03-26T06:17:36.329Z,9.83
2019-03-26T06:20:06.942Z,9.57
2019-03-26T06:22:35.352Z,9.10
2019-03-26T06:25:06.537Z,9.47
2019-03-26T06:27:34.862Z,8.93
2019-03-26T06:30:03.802Z,10.17
2019-03-26T06:32:32.191Z,8.10
2019-03-26T06:35:00.813Z,8.67
2019-03-26T06:37:29.162Z,9.40
2019-03-26T06:39:58.593Z,8.30
2019-03-26T06:42:27.062Z,8.73
2019-03-26T06:44:55.372Z,8.00
2019-03-26T06:47:23.801Z,8.80
2019-03-26T06:49:52.445Z,6.80
2019-03-26T06:52:20.776Z,9.85
2019-03-26T06:54:51.579Z,7.93
2019-03-26T06:57:19.136Z,8.47
2019-03-26T06:59:47.543Z,8.07
2019-03-26T07:02:15.903Z,8.10
2019-03-26T07:04:46.314Z,7.22
2019-03-26T07:07:14.793Z,7.30
2019-03-26T07:09:43.134Z,8.00
2019-03-26T07:12:11.568Z,7.33
2019-03-26T07:14:39.871Z,8.00
2019-03-26T07:17:08.202Z,6.50
2019-03-26T07:19:36.503Z,8.38
2019-03-26T07:22:05.184Z,9.10
2019-03-26T07:24:33.558Z,7.92
2019-03-26T07:27:01.945Z,7.42
2019-03-26T07:29:30.637Z,10.90
2019-03-26T07:31:59.026Z,7.47
2019-03-26T07:34:27.845Z,9.68
2019-03-26T07:36:56.172Z,7.03
2019-03-26T07:39:24.774Z,6.53
2019-03-26T07:41:53.233Z,7.40
2019-03-26T07:44:21.612Z,6.03
2019-03-26T07:46:50.031Z,7.10
2019-03-26T07:49:18.328Z,7.97
2019-03-26T07:51:46.724Z,7.20
2019-03-26T07:54:15.059Z,7.50
2019-03-26T07:56:43.362Z,5.58
2019-03-26T07:59:11.705Z,6.53
2019-03-26T08:01:39.999Z,6.40
2019-03-26T08:04:08.314Z,5.50
2019-03-26T08:06:36.617Z,4.45
2019-03-26T08:09:06.662Z,5.05
2019-03-26T08:11:34.971Z,5.17
2019-03-26T08:14:03.526Z,4.07
2019-03-26T08:16:33.269Z,5.30
2019-03-26T08:19:01.549Z,4.63
2019-03-26T08:21:29.913Z,4.50
2019-03-26T08:23:58.214Z,4.60
2019-03-26T08:26:26.534Z,4.90
2019-03-26T08:28:54.830Z,4.20
2019-03-26T08:31:23.563Z,4.77
2019-03-26T08:33:52.274Z,5.07
2019-03-26T08:36:21.370Z,4.30
2019-03-26T08:38:50.547Z,6.50
2019-03-26T08:41:19.020Z,5.37
2019-03-26T08:43:48.036Z,3.62
2019-03-26T08:46:16.708Z,4.20
2019-03-26T08:48:45.411Z,4.73
2019-03-26T08:51:13.711Z,4.20
2019-03-26T08:53:42.032Z,3.80
2019-03-26T08:56:10.353Z,4.47
2019-03-26T08:58:38.665Z,4.85
2019-03-26T09:01:06.977Z,5.10
2019-03-26T09:03:35.373Z,4.60
2019-03-26T09:06:03.698Z,5.40
2019-03-26T09:08:31.988Z,4.80
2019-03-26T09:11:00.319Z,6.00
2019-03-26T09:13:28.609Z,5.43
2019-03-26T09:15:56.937Z,5.63
2019-03-26T09:18:25.236Z,5.20
2019-03-26T09:20:53.570Z,5.92
2019-03-26T09:23:21.868Z,5.80
2019-03-26T09:25:50.201Z,5.53
2019-03-26T09:28:18.522Z,4.20
2019-03-26T09:30:46.828Z,4.80
2019-03-26T09:33:15.359Z,4.97
2019-03-26T09:35:43.649Z,5.03
2019-03-26T09:38:12.317Z,5.10
2019-03-26T09:40:41.069Z,5.30
2019-03-26T09:43:09.361Z,5.53
2019-03-26T09:45:37.750Z,5.70
2019-03-26T09:48:06.119Z,5.70
2019-03-26T09:50:36.592Z,5.67
2019-03-26T09:53:05.226Z,7.03
2019-03-26T09:55:33.533Z,6.27
2019-03-26T09:58:01.934Z,5.50
2019-03-26T10:00:30.303Z,6.43
2019-03-26T10:02:58.564Z,5.95
2019-03-26T10:05:26.926Z,5.20
2019-03-26T10:07:55.673Z,5.75
2019-03-26T10:10:23.970Z,5.50
2019-03-26T10:12:52.292Z,5.03
2019-03-26T10:15:21.026Z,4.20
2019-03-26T10:17:49.358Z,3.33
2019-03-26T10:20:18.103Z,4.77
2019-03-26T10:22:47.301Z,5.33
2019-03-26T10:25:15.685Z,6.43
2019-03-26T10:27:44.000Z,5.67
2019-03-26T10:30:14.953Z,5.37
2019-03-26T10:32:43.313Z,7.03
2019-03-26T10:35:11.908Z,7.30
2019-03-26T10:37:40.275Z,5.30
2019-03-26T10:40:09.432Z,5.40
2019-03-26T10:42:38.070Z,3.85
2019-03-26T10:45:07.778Z,4.95
2019-03-26T10:47:36.097Z,5.07
2019-03-26T10:50:05.925Z,4.80
2019-03-26T10:52:34.643Z,4.37
2019-03-26T10:55:03.684Z,3.33
2019-03-26T10:57:32.098Z,5.53
2019-03-26T11:00:00.502Z,5.40
2019-03-26T11:02:29.077Z,5.80
2019-03-26T11:04:57.522Z,6.58
2019-03-26T11:07:25.838Z,4.80
2019-03-26T11:09:54.281Z,5.33
2019-03-26T11:12:22.931Z,5.00
2019-03-26T11:14:51.227Z,6.90
2019-03-26T11:17:19.794Z,5.23
2019-03-26T11:19:48.159Z,5.70
2019-03-26T11:22:16.451Z,5.30
2019-03-26T11:24:44.836Z,5.20
2019-03-26T11:27:13.229Z,4.30
2019-03-26T11:29:41.556Z,6.30
2019-03-26T11:32:09.917Z,5.43
2019-03-26T11:34:38.245Z,4.20
2019-03-26T11:37:06.539Z,5.93
2019-03-26T11:39:34.835Z,6.10
2019-03-26T11:42:03.607Z,5.60
2019-03-26T11:44:31.905Z,6.47
2019-03-26T11:47:00.219Z,6.83
2019-03-26T11:49:28.516Z,5.70
2019-03-26T11:51:57.070Z,6.50
2019-03-26T11:54:25.391Z,6.33
2019-03-26T11:56:53.986Z,6.00
2019-03-26T11:59:22.276Z,4.80
2019-03-26T12:01:52.457Z,6.07
2019-03-26T12:04:20.983Z,5.40
2019-03-26T12:06:49.301Z,6.10
2019-03-26T12:09:18.152Z,5.67
2019-03-26T12:11:46.865Z,6.10
2019-03-26T12:14:15.258Z,6.73
2019-03-26T12:16:43.554Z,5.33
2019-03-26T12:19:12.010Z,5.15
2019-03-26T12:21:40.321Z,5.87
2019-03-26T12:24:08.701Z,4.33
2019-03-26T12:26:37.030Z,5.07
2019-03-26T12:29:05.921Z,5.57
2019-03-26T12:31:34.241Z,4.60
2019-03-26T12:34:03.273Z,3.07
2019-03-26T12:36:39.826Z,6.40
2019-03-26T12:39:01.922Z,5.43
2019-03-26T12:41:30.242Z,6.07
2019-03-26T12:43:58.604Z,3.63
2019-03-26T12:46:27.039Z,4.90
2019-03-26T12:48:55.326Z,5.50
2019-03-26T12:51:23.630Z,5.40
2019-03-26T12:53:51.960Z,5.63
2019-03-26T12:56:20.314Z,4.70
2019-03-26T12:58:48.693Z,4.40
2019-03-26T13:01:16.987Z,5.23
2019-03-26T13:03:45.383Z,5.70
2019-03-26T13:06:13.745Z,5.00
2019-03-26T13:08:42.387Z,4.97
2019-03-26T13:11:10.724Z,5.70
2019-03-26T13:13:39.079Z,5.43
2019-03-26T13:16:07.465Z,4.77
2019-03-26T13:18:35.773Z,3.60
2019-03-26T13:21:04.500Z,5.03
2019-03-26T13:23:32.790Z,4.10
2019-03-26T13:26:01.110Z,3.85
2019-03-26T13:28:29.441Z,3.73
2019-03-26T13:30:57.767Z,3.00
2019-03-26T13:33:26.073Z,3.73
2019-03-26T13:35:54.446Z,4.30
2019-03-26T13:38:23.174Z,4.60
2019-03-26T13:40:51.539Z,3.90
2019-03-26T13:43:19.933Z,3.40
2019-03-26T13:45:48.515Z,4.90
2019-03-26T13:48:16.832Z,5.07
2019-03-26T13:50:45.135Z,3.37
2019-03-26T13:53:13.430Z,2.97
2019-03-26T13:55:41.759Z,4.00
2019-03-26T13:58:10.048Z,3.30
2019-03-26T14:00:39.459Z,3.80
2019-03-26T14:03:07.907Z,4.27
2019-03-26T14:05:36.292Z,3.70
2019-03-26T14:08:04.948Z,4.40
2019-03-26T14:10:40.764Z,4.40
2019-03-26T14:13:03.293Z,4.73
2019-03-26T14:15:31.658Z,3.93
2019-03-26T14:17:59.969Z,3.90
2019-03-26T14:20:28.330Z,4.80
2019-03-26T14:22:56.657Z,4.33
2019-03-26T14:25:25.239Z,2.92
2019-03-26T14:27:53.977Z,3.70
2019-03-26T14:30:36.615Z,4.22
2019-03-26T14:33:05.477Z,4.53
2019-03-26T14:35:33.812Z,4.03
2019-03-26T14:38:02.353Z,3.57
2019-03-26T14:40:30.839Z,3.52
2019-03-26T14:42:59.137Z,2.87
2019-03-26T14:45:27.563Z,5.30
2019-03-26T14:47:56.190Z,3.80
2019-03-26T14:50:24.530Z,5.00
2019-03-26T14:52:52.876Z,5.13
2019-03-26T14:55:21.297Z,4.40
2019-03-26T14:57:49.579Z,3.97
2019-03-26T15:00:18.251Z,4.57
2019-03-26T15:02:46.559Z,3.47
2019-03-26T15:05:14.917Z,4.77
2019-03-26T15:07:43.238Z,4.37
2019-03-26T15:10:11.942Z,5.70
2019-03-26T15:12:40.322Z,4.63
2019-03-26T15:15:08.859Z,5.70
2019-03-26T15:17:37.179Z,5.67
2019-03-26T15:20:08.360Z,4.40
2019-03-26T15:22:36.752Z,5.70
2019-03-26T15:25:06.377Z,4.03
2019-03-26T15:27:34.789Z,5.03
2019-03-26T15:30:03.872Z,5.30
2019-03-26T15:32:32.166Z,4.50
2019-03-26T15:35:00.593Z,5.83
2019-03-26T15:37:28.940Z,5.80
2019-03-26T15:39:57.260Z,5.13
2019-03-26T15:42:25.623Z,4.47
2019-03-26T15:44:54.299Z,5.00
2019-03-26T15:47:22.597Z,3.97
2019-03-26T15:49:50.967Z,3.80
2019-03-26T15:52:19.557Z,4.67
2019-03-26T15:54:47.929Z,5.70
2019-03-26T15:57:16.310Z,5.53
2019-03-26T15:59:44.607Z,4.17
2019-03-26T16:02:13.382Z,4.63
2019-03-26T16:04:41.675Z,3.70
2019-03-26T16:07:10.281Z,3.50
2019-03-26T16:09:38.577Z,3.90
2019-03-26T16:12:06.890Z,3.53
2019-03-26T16:14:35.228Z,3.50
2019-03-26T16:17:03.657Z,3.90
2019-03-26T16:19:33.036Z,3.50
2019-03-26T16:22:01.835Z,4.40
2019-03-26T16:24:30.136Z,5.43
2019-03-26T16:26:58.722Z,3.00
2019-03-26T16:29:27.060Z,4.50
2019-03-26T16:31:55.451Z,3.70
2019-03-26T16:34:24.074Z,4.13
2019-03-26T16:36:59.421Z,3.60
2019-03-26T16:39:22.900Z,7.80
2019-03-26T16:41:51.207Z,4.37
2019-03-26T16:44:19.620Z,4.57
2019-03-26T16:46:47.910Z,4.17
2019-03-26T16:49:16.207Z,3.80
2019-03-26T16:51:44.914Z,4.10
2019-03-26T16:54:13.200Z,5.17
2019-03-26T16:56:41.501Z,3.60
2019-03-26T16:59:09.836Z,3.90
2019-03-26T17:01:38.124Z,3.90
2019-03-26T17:04:06.909Z,3.10
2019-03-26T17:06:35.204Z,4.00
2019-03-26T17:09:04.161Z,3.00
2019-03-26T17:11:32.480Z,4.17
2019-03-26T17:14:00.804Z,3.77
2019-03-26T17:16:29.543Z,3.97
2019-03-26T17:18:57.831Z,4.03
2019-03-26T17:21:26.147Z,4.30
2019-03-26T17:23:54.438Z,4.00
2019-03-26T17:26:22.822Z,4.27
2019-03-26T17:28:51.330Z,4.50
2019-03-26T17:31:19.638Z,5.50
2019-03-26T17:33:48.008Z,7.42
2019-03-26T17:36:16.315Z,4.90
2019-03-26T17:38:44.621Z,4.87
2019-03-26T17:41:12.918Z,5.22
2019-03-26T17:43:41.226Z,5.17
2019-03-26T17:46:09.527Z,4.08
2019-03-26T17:48:37.849Z,5.00
2019-03-26T17:51:06.282Z,5.47
2019-03-26T17:53:34.623Z,5.40
2019-03-26T17:56:03.076Z,4.85
2019-03-26T17:58:31.515Z,6.03
2019-03-26T18:00:59.901Z,5.83
2019-03-26T18:03:28.190Z,5.10
2019-03-26T18:05:56.560Z,5.43
2019-03-26T18:08:24.947Z,5.30
2019-03-26T18:10:53.370Z,6.13
2019-03-26T18:13:21.741Z,5.50
2019-03-26T18:15:50.139Z,6.67
2019-03-26T18:18:18.514Z,7.03
2019-03-26T18:20:46.828Z,5.07
2019-03-26T18:23:15.186Z,5.77
2019-03-26T18:25:43.491Z,7.22
2019-03-26T18:28:11.873Z,9.27
2019-03-26T18:30:40.906Z,7.28
2019-03-26T18:33:09.675Z,6.60
2019-03-26T18:35:38.055Z,7.03
2019-03-26T18:38:06.371Z,7.60
2019-03-26T18:40:34.683Z,8.28
2019-03-26T18:43:03.002Z,8.20
2019-03-26T18:45:31.304Z,7.47
2019-03-26T18:47:59.695Z,7.57
2019-03-26T18:50:28.016Z,7.20
2019-03-26T18:52:56.727Z,9.40
2019-03-26T18:55:25.417Z,8.68
2019-03-26T18:57:53.925Z,9.90
2019-03-26T19:00:38.540Z,27.03
2019-03-26T19:03:07.606Z,9.23
2019-03-26T19:05:36.063Z,8.03
2019-03-26T19:08:05.102Z,8.10
2019-03-26T19:10:35.060Z,8.40
2019-03-26T19:13:18.067Z,8.97
2019-03-26T19:15:34.282Z,8.73
2019-03-26T19:18:02.659Z,8.83
2019-03-26T19:20:31.095Z,8.17
2019-03-26T19:22:59.483Z,9.05
2019-03-26T19:25:27.875Z,10.57
2019-03-26T19:27:56.183Z,8.60
2019-03-26T19:30:24.478Z,8.80
2019-03-26T19:32:52.793Z,9.80
2019-03-26T19:35:21.091Z,25.13
2019-03-26T19:37:49.731Z,9.97
2019-03-26T19:40:18.120Z,7.53
2019-03-26T19:42:46.795Z,8.55
2019-03-26T19:45:15.700Z,8.83
2019-03-26T19:47:44.017Z,9.07
2019-03-26T19:50:13.765Z,9.30
2019-03-26T19:52:42.958Z,12.20
2019-03-26T19:55:11.424Z,8.67
2019-03-26T19:57:39.712Z,7.83
2019-03-26T20:00:15.276Z,8.17
2019-03-26T20:02:43.810Z,7.40
2019-03-26T20:05:12.462Z,7.13
2019-03-26T20:07:40.915Z,7.17
2019-03-26T20:10:11.062Z,7.90
2019-03-26T20:12:39.431Z,7.60
2019-03-26T20:15:10.126Z,7.90
2019-03-26T20:17:38.583Z,7.33
2019-03-26T20:20:07.890Z,7.22
2019-03-26T20:22:36.211Z,6.67
2019-03-26T20:25:06.157Z,6.92
2019-03-26T20:27:34.479Z,7.17
2019-03-26T20:30:02.913Z,7.72
2019-03-26T20:32:31.219Z,6.15
2019-03-26T20:34:59.549Z,6.85
2019-03-26T20:37:27.835Z,6.67
2019-03-26T20:39:56.199Z,8.40
2019-03-26T20:42:24.500Z,6.47
2019-03-26T20:44:52.802Z,8.10
2019-03-26T20:47:21.170Z,5.93
2019-03-26T20:49:49.479Z,6.27
2019-03-26T20:52:17.871Z,7.20
2019-03-26T20:54:47.827Z,6.07
2019-03-26T20:57:16.161Z,5.30
2019-03-26T20:59:44.450Z,5.75
2019-03-26T21:02:12.752Z,6.10
2019-03-26T21:04:41.060Z,6.20
2019-03-26T21:07:09.790Z,4.67
2019-03-26T21:09:38.479Z,4.67
2019-03-26T21:12:06.831Z,4.47
2019-03-26T21:14:35.589Z,5.27
2019-03-26T21:17:03.990Z,4.97
2019-03-26T21:19:32.351Z,5.30
2019-03-26T21:22:00.710Z,4.10
2019-03-26T21:24:29.067Z,5.20
2019-03-26T21:26:57.406Z,4.20
2019-03-26T21:29:25.809Z,4.13
2019-03-26T21:31:54.109Z,4.70
2019-03-26T21:34:30.313Z,4.77
2019-03-26T21:36:52.579Z,3.80
2019-03-26T21:39:21.228Z,3.80
2019-03-26T21:41:50.012Z,3.73
2019-03-26T21:44:18.403Z,4.20
2019-03-26T21:46:46.677Z,3.40
2019-03-26T21:49:14.981Z,3.58
2019-03-26T21:51:43.892Z,2.80
2019-03-26T21:54:12.360Z,3.77
2019-03-26T21:56:41.015Z,2.77
2019-03-26T21:59:09.307Z,3.70
2019-03-26T22:01:37.619Z,3.50
2019-03-26T22:04:05.910Z,3.57
2019-03-26T22:06:34.227Z,3.70
2019-03-26T22:09:02.524Z,3.47
2019-03-26T22:11:31.197Z,2.70
2019-03-26T22:13:59.487Z,3.10
2019-03-26T22:16:27.853Z,3.07
2019-03-26T22:18:56.237Z,2.60
2019-03-26T22:21:24.531Z,4.07
2019-03-26T22:23:52.841Z,2.17
2019-03-26T22:26:21.136Z,2.50
2019-03-26T22:28:49.515Z,3.07
2019-03-26T22:31:18.155Z,2.45
2019-03-26T22:33:46.621Z,2.80
2019-03-26T22:36:14.918Z,2.87
2019-03-26T22:38:43.211Z,2.97
2019-03-26T22:41:11.798Z,2.50
2019-03-26T22:43:40.478Z,3.83
2019-03-26T22:46:09.161Z,2.85
2019-03-26T22:48:37.494Z,2.73
2019-03-26T22:51:05.893Z,2.87
2019-03-26T22:53:34.214Z,3.17
2019-03-26T22:56:02.746Z,3.40
2019-03-26T22:58:31.093Z,3.10
2019-03-26T23:00:59.555Z,3.20
2019-03-26T23:03:28.687Z,2.53
2019-03-26T23:05:56.980Z,2.33
2019-03-26T23:08:25.298Z,3.43
2019-03-26T23:10:53.902Z,3.10
2019-03-26T23:13:22.469Z,2.37
2019-03-26T23:15:50.782Z,3.00
2019-03-26T23:18:19.215Z,3.77
2019-03-26T23:20:47.939Z,3.80
2019-03-26T23:23:16.228Z,3.57
2019-03-26T23:25:44.547Z,3.10
2019-03-26T23:28:12.841Z,2.92
2019-03-26T23:30:41.171Z,3.70
2019-03-26T23:33:09.527Z,2.73
2019-03-26T23:35:37.933Z,3.40
2019-03-26T23:38:06.821Z,3.47
2019-03-26T23:40:35.417Z,3.12
2019-03-26T23:43:03.800Z,3.03
2019-03-26T23:45:32.103Z,4.47
2019-03-26T23:48:00.488Z,4.90
2019-03-26T23:50:28.965Z,3.22
2019-03-26T23:52:57.334Z,4.60
2019-03-26T23:55:26.003Z,3.97
2019-03-26T23:57:54.298Z,3.80
